createdAt,value
2017-07-14T00:02:19.102Z,3.97
2017-07-14T00:04:45.420Z,3.63
2017-07-14T00:07:11.846Z,5.17
2017-07-14T00:09:38.242Z,3.40
2017-07-14T00:12:04.659Z,3.50
2017-07-14T00:14:31.050Z,4.15
2017-07-14T00:16:57.451Z,4.70
2017-07-14T00:19:23.838Z,3.50
2017-07-14T00:21:50.190Z,3.20
2017-07-14T00:24:16.611Z,3.67
2017-07-14T00:26:43.765Z,3.67
2017-07-14T00:29:10.165Z,3.30
2017-07-14T00:31:36.586Z,3.30
2017-07-14T00:34:02.947Z,2.97
2017-07-14T00:36:29.329Z,3.53
2017-07-14T00:38:55.718Z,3.72
2017-07-14T00:41:22.828Z,3.45
2017-07-14T00:43:56.121Z,3.55
2017-07-14T00:46:22.486Z,4.07
2017-07-14T00:48:49.684Z,3.97
2017-07-14T00:51:16.039Z,4.10
2017-07-14T00:53:42.411Z,4.22
2017-07-14T00:56:09.503Z,3.67
2017-07-14T00:58:35.878Z,3.55
2017-07-14T01:01:03.013Z,3.95
2017-07-14T01:03:29.796Z,4.18
2017-07-14T01:05:56.160Z,4.20
2017-07-14T01:08:22.526Z,4.20
2017-07-14T01:10:48.891Z,3.75
2017-07-14T01:13:15.287Z,4.10
2017-07-14T01:15:41.633Z,3.40
2017-07-14T01:18:07.997Z,3.58
2017-07-14T01:20:34.407Z,3.65
2017-07-14T01:23:00.763Z,3.75
2017-07-14T01:25:27.137Z,3.42
2017-07-14T01:27:53.541Z,4.07
2017-07-14T01:30:19.955Z,4.18
2017-07-14T01:32:46.333Z,3.90
2017-07-14T01:35:12.722Z,4.30
2017-07-14T01:37:39.107Z,4.05
2017-07-14T01:40:06.320Z,3.70
2017-07-14T01:42:32.741Z,3.65
2017-07-14T01:45:00.050Z,3.80
2017-07-14T01:47:27.186Z,4.65
2017-07-14T01:49:53.599Z,4.62
2017-07-14T01:52:20.014Z,4.20
2017-07-14T01:54:46.440Z,4.45
2017-07-14T01:57:12.834Z,4.28
2017-07-14T01:59:39.264Z,4.10
2017-07-14T02:02:06.368Z,4.20
2017-07-14T02:04:32.790Z,4.60
2017-07-14T02:06:59.234Z,4.50
2017-07-14T02:09:25.639Z,4.47
2017-07-14T02:11:52.024Z,4.12
2017-07-14T02:14:18.419Z,4.47
2017-07-14T02:16:44.822Z,4.53
2017-07-14T02:19:11.224Z,4.25
2017-07-14T02:21:37.604Z,4.80
2017-07-14T02:24:03.992Z,4.07
2017-07-14T02:26:30.391Z,5.20
2017-07-14T02:28:56.906Z,4.32
2017-07-14T02:31:23.433Z,4.85
2017-07-14T02:33:49.839Z,4.65
2017-07-14T02:36:17.085Z,5.32
2017-07-14T02:38:43.470Z,5.12
2017-07-14T02:41:09.879Z,6.10
2017-07-14T02:43:36.318Z,5.62
2017-07-14T02:46:02.923Z,5.18
2017-07-14T02:48:30.047Z,5.20
2017-07-14T02:50:56.441Z,5.95
2017-07-14T02:53:22.843Z,5.12
2017-07-14T02:55:49.269Z,5.05
2017-07-14T02:58:16.428Z,5.25
2017-07-14T03:00:42.847Z,5.30
2017-07-14T03:03:09.277Z,4.28
2017-07-14T03:05:36.465Z,5.35
2017-07-14T03:08:02.894Z,4.62
2017-07-14T03:10:29.315Z,5.00
2017-07-14T03:12:55.704Z,4.80
2017-07-14T03:15:22.165Z,3.97
2017-07-14T03:17:48.566Z,5.20
2017-07-14T03:20:14.998Z,4.97
2017-07-14T03:22:41.386Z,4.93
2017-07-14T03:25:07.808Z,4.50
2017-07-14T03:27:34.262Z,5.15
2017-07-14T03:30:00.646Z,5.90
2017-07-14T03:32:27.094Z,6.07
2017-07-14T03:34:54.234Z,5.32
2017-07-14T03:37:21.414Z,5.32
2017-07-14T03:39:47.863Z,5.30
2017-07-14T03:42:14.372Z,6.15
2017-07-14T03:44:40.835Z,5.70
2017-07-14T03:47:07.273Z,6.60
2017-07-14T03:49:33.662Z,6.47
2017-07-14T03:52:00.866Z,5.70
2017-07-14T03:54:27.280Z,5.70
2017-07-14T03:56:53.729Z,5.00
2017-07-14T03:59:20.108Z,6.20
2017-07-14T04:01:47.223Z,5.57
2017-07-14T04:04:13.854Z,6.18
2017-07-14T04:06:40.336Z,5.80
2017-07-14T04:09:09.145Z,7.30
2017-07-14T04:11:35.769Z,5.80
2017-07-14T04:14:02.092Z,5.80
2017-07-14T04:16:28.411Z,5.87
2017-07-14T04:18:54.729Z,6.50
2017-07-14T04:21:21.094Z,6.73
2017-07-14T04:23:48.133Z,6.00
2017-07-14T04:26:16.187Z,6.47
2017-07-14T04:28:42.656Z,6.40
2017-07-14T04:31:09.022Z,5.90
2017-07-14T04:33:35.504Z,6.83
2017-07-14T04:36:01.948Z,5.97
2017-07-14T04:38:29.431Z,6.20
2017-07-14T04:40:56.178Z,5.90
2017-07-14T04:43:22.742Z,6.40
2017-07-14T04:45:49.568Z,6.67
2017-07-14T04:48:16.159Z,6.90
2017-07-14T04:50:46.816Z,6.40
2017-07-14T04:53:13.697Z,6.73
2017-07-14T04:55:40.740Z,5.90
2017-07-14T04:58:07.252Z,6.13
2017-07-14T05:00:33.617Z,5.83
2017-07-14T05:03:00.003Z,6.63
2017-07-14T05:05:26.350Z,5.43
2017-07-14T05:07:52.717Z,5.83
2017-07-14T05:10:19.805Z,7.03
2017-07-14T05:12:46.204Z,4.80
2017-07-14T05:15:12.559Z,5.50
2017-07-14T05:17:38.897Z,5.30
2017-07-14T05:20:05.287Z,5.63
2017-07-14T05:22:31.640Z,5.70
2017-07-14T05:24:58.722Z,5.57
2017-07-14T05:27:25.091Z,4.83
2017-07-14T05:29:51.433Z,5.37
2017-07-14T05:32:17.790Z,5.13
2017-07-14T05:34:44.142Z,5.00
2017-07-14T05:37:10.476Z,5.77
2017-07-14T05:39:36.801Z,4.83
2017-07-14T05:42:03.150Z,5.00
2017-07-14T05:44:29.485Z,4.70
2017-07-14T05:46:56.182Z,4.50
2017-07-14T05:49:22.539Z,5.10
2017-07-14T05:51:48.878Z,4.93
2017-07-14T05:54:15.258Z,5.17
2017-07-14T05:56:41.623Z,5.20
2017-07-14T05:59:07.996Z,4.70
2017-07-14T06:01:34.342Z,5.90
2017-07-14T06:04:00.724Z,5.37
2017-07-14T06:06:27.128Z,5.57
2017-07-14T06:08:53.523Z,5.43
2017-07-14T06:11:19.854Z,5.60
2017-07-14T06:13:46.277Z,5.53
2017-07-14T06:16:12.689Z,5.13
2017-07-14T06:18:39.099Z,5.37
2017-07-14T06:21:05.488Z,5.80
2017-07-14T06:23:31.920Z,5.77
2017-07-14T06:25:58.279Z,5.50
2017-07-14T06:28:25.427Z,6.40
2017-07-14T06:30:52.508Z,5.80
2017-07-14T06:33:18.851Z,5.47
2017-07-14T06:35:45.193Z,5.70
2017-07-14T06:38:12.432Z,5.60
2017-07-14T06:40:38.809Z,5.50
2017-07-14T06:43:05.921Z,6.73
2017-07-14T06:45:32.298Z,5.30
2017-07-14T06:47:58.687Z,4.90
2017-07-14T06:50:25.041Z,6.67
2017-07-14T06:52:51.514Z,5.30
2017-07-14T06:55:17.856Z,5.23
2017-07-14T06:57:44.179Z,5.70
2017-07-14T07:00:10.573Z,6.00
2017-07-14T07:02:36.957Z,6.80
2017-07-14T07:05:03.325Z,6.77
2017-07-14T07:07:30.245Z,7.00
2017-07-14T07:09:56.599Z,5.60
2017-07-14T07:12:23.837Z,6.10
2017-07-14T07:14:50.229Z,5.70
2017-07-14T07:17:16.614Z,5.20
2017-07-14T07:19:43.013Z,5.50
2017-07-14T07:22:09.482Z,5.57
2017-07-14T07:24:35.873Z,5.30
2017-07-14T07:27:02.355Z,5.90
2017-07-14T07:29:28.896Z,4.80
2017-07-14T07:31:55.887Z,6.00
2017-07-14T07:34:22.309Z,5.60
2017-07-14T07:36:48.670Z,4.53
2017-07-14T07:39:15.168Z,5.73
2017-07-14T07:41:45.557Z,5.63
2017-07-14T07:44:12.797Z,6.20
2017-07-14T07:46:45.382Z,5.40
2017-07-14T07:49:17.828Z,5.23
2017-07-14T07:51:44.172Z,4.67
2017-07-14T07:54:10.531Z,5.00
2017-07-14T07:56:38.026Z,6.80
2017-07-14T07:59:04.362Z,6.33
2017-07-14T08:01:30.706Z,6.20
2017-07-14T08:03:57.458Z,5.07
2017-07-14T08:06:24.804Z,5.37
2017-07-14T08:08:51.233Z,6.63
2017-07-14T08:11:17.641Z,7.60
2017-07-14T08:13:44.368Z,7.33
2017-07-14T08:16:11.426Z,6.60
2017-07-14T08:18:37.737Z,5.57
2017-07-14T08:21:04.832Z,7.13
2017-07-14T08:23:31.180Z,6.63
2017-07-14T08:25:57.555Z,6.03
2017-07-14T08:28:24.622Z,6.83
2017-07-14T08:30:51.008Z,6.50
2017-07-14T08:33:17.325Z,6.87
2017-07-14T08:35:43.654Z,7.67
2017-07-14T08:38:09.992Z,5.10
2017-07-14T08:40:36.337Z,6.13
2017-07-14T08:43:02.692Z,7.20
2017-07-14T08:45:29.105Z,7.13
2017-07-14T08:47:56.218Z,8.00
2017-07-14T08:50:22.595Z,7.20
2017-07-14T08:52:48.981Z,8.13
2017-07-14T08:55:15.669Z,6.40
2017-07-14T08:57:42.057Z,7.10
2017-07-14T09:00:08.479Z,8.03
2017-07-14T09:02:34.849Z,6.77
2017-07-14T09:05:01.283Z,7.50
2017-07-14T09:07:27.807Z,6.83
2017-07-14T09:09:54.256Z,8.00
2017-07-14T09:12:20.688Z,7.07
2017-07-14T09:14:48.021Z,7.20
2017-07-14T09:17:14.470Z,7.23
2017-07-14T09:19:40.856Z,5.57
2017-07-14T09:22:07.278Z,5.30
2017-07-14T09:24:33.688Z,5.70
2017-07-14T09:27:00.048Z,5.50
2017-07-14T09:29:26.390Z,6.00
2017-07-14T09:31:52.744Z,6.53
2017-07-14T09:34:19.138Z,5.90
2017-07-14T09:36:45.527Z,6.93
2017-07-14T09:39:11.875Z,6.50
2017-07-14T09:41:38.221Z,6.90
2017-07-14T09:44:04.622Z,6.43
2017-07-14T09:46:30.959Z,6.67
2017-07-14T09:48:57.298Z,7.47
2017-07-14T09:51:23.649Z,7.90
2017-07-14T09:53:50.021Z,7.50
2017-07-14T09:56:16.457Z,6.63
2017-07-14T09:58:42.969Z,6.70
2017-07-14T10:01:09.738Z,6.30
2017-07-14T10:03:36.422Z,5.87
2017-07-14T10:06:03.005Z,6.40
2017-07-14T10:08:29.379Z,6.00
2017-07-14T10:10:55.822Z,6.50
2017-07-14T10:13:22.182Z,5.97
2017-07-14T10:15:48.704Z,5.60
2017-07-14T10:18:15.066Z,5.43
2017-07-14T10:20:41.418Z,4.93
2017-07-14T10:23:08.051Z,6.13
2017-07-14T10:25:34.528Z,6.23
2017-07-14T10:28:01.079Z,5.50
2017-07-14T10:30:27.498Z,5.77
2017-07-14T10:32:53.911Z,5.20
2017-07-14T10:35:20.265Z,5.70
2017-07-14T10:37:46.654Z,5.47
2017-07-14T10:40:13.026Z,5.97
2017-07-14T10:42:39.563Z,6.17
2017-07-14T10:45:05.966Z,5.63
2017-07-14T10:47:32.386Z,5.70
2017-07-14T10:50:23.218Z,3.90
2017-07-14T10:52:55.881Z,4.23
2017-07-14T10:55:45.218Z,5.03
2017-07-14T10:58:12.472Z,5.37
2017-07-14T11:00:45.903Z,5.73
2017-07-14T11:03:15.892Z,4.57
2017-07-14T11:05:42.636Z,4.10
2017-07-14T11:08:09.355Z,5.27
2017-07-14T11:10:49.762Z,4.50
2017-07-14T11:13:18.048Z,4.90
2017-07-14T11:15:44.597Z,3.80
2017-07-14T11:18:19.167Z,5.37
2017-07-14T11:20:45.733Z,4.70
2017-07-14T11:23:13.800Z,5.20
2017-07-14T11:25:40.881Z,4.80
2017-07-14T11:28:07.270Z,4.80
2017-07-14T11:30:34.386Z,4.80
2017-07-14T11:33:00.745Z,4.27
2017-07-14T11:35:27.829Z,5.00
2017-07-14T11:37:54.202Z,4.87
2017-07-14T11:40:20.540Z,5.50
2017-07-14T11:42:46.912Z,4.90
2017-07-14T11:45:13.365Z,5.40
2017-07-14T11:47:39.720Z,4.67
2017-07-14T11:50:06.150Z,5.33
2017-07-14T11:52:32.608Z,6.63
2017-07-14T11:54:59.148Z,5.30
2017-07-14T11:57:25.566Z,6.30
2017-07-14T11:59:51.938Z,4.20
2017-07-14T12:02:18.387Z,5.00
2017-07-14T12:04:44.780Z,4.70
2017-07-14T12:07:11.187Z,4.50
2017-07-14T12:09:37.560Z,4.97
2017-07-14T12:12:08.629Z,3.97
2017-07-14T12:14:35.025Z,4.37
2017-07-14T12:17:01.499Z,4.60
2017-07-14T12:19:27.912Z,4.60
2017-07-14T12:21:54.325Z,4.30
2017-07-14T12:24:20.696Z,3.60
2017-07-14T12:26:47.014Z,4.00
2017-07-14T12:29:13.407Z,4.93
2017-07-14T12:31:39.747Z,4.37
2017-07-14T12:34:06.179Z,4.10
2017-07-14T12:36:32.571Z,5.03
2017-07-14T12:38:59.301Z,5.30
2017-07-14T12:41:26.514Z,3.97
2017-07-14T12:43:53.066Z,4.60
2017-07-14T12:46:19.479Z,4.13
2017-07-14T12:48:45.932Z,3.73
2017-07-14T12:51:12.418Z,3.80
2017-07-14T12:53:41.412Z,4.40
2017-07-14T12:56:07.766Z,4.00
2017-07-14T12:58:34.205Z,3.40
2017-07-14T13:01:01.528Z,3.00
2017-07-14T13:03:27.938Z,2.70
2017-07-14T13:05:54.338Z,2.53
2017-07-14T13:08:20.734Z,2.97
2017-07-14T13:10:47.152Z,3.07
2017-07-14T13:13:13.561Z,2.87
2017-07-14T13:15:40.526Z,2.60
2017-07-14T13:18:13.215Z,3.27
2017-07-14T13:20:39.648Z,3.07
2017-07-14T13:23:13.098Z,3.27
2017-07-14T13:25:40.263Z,3.70
2017-07-14T13:28:06.644Z,3.40
2017-07-14T13:30:33.163Z,3.83
2017-07-14T13:32:59.582Z,4.73
2017-07-14T13:35:26.038Z,5.20
2017-07-14T13:37:55.601Z,5.83
2017-07-14T13:40:22.353Z,7.20
2017-07-14T13:42:48.760Z,7.67
2017-07-14T13:45:15.135Z,7.23
2017-07-14T13:47:41.535Z,7.30
2017-07-14T13:50:07.919Z,7.20
2017-07-14T13:52:34.279Z,7.10
2017-07-14T13:55:00.641Z,7.70
2017-07-14T13:57:26.954Z,7.50
2017-07-14T13:59:53.373Z,7.00
2017-07-14T14:02:19.732Z,8.07
2017-07-14T14:04:46.100Z,8.10
2017-07-14T14:07:13.231Z,9.07
2017-07-14T14:09:39.631Z,9.60
2017-07-14T14:12:06.004Z,9.07
2017-07-14T14:14:32.374Z,8.40
2017-07-14T14:16:58.788Z,9.00
2017-07-14T14:19:25.173Z,8.20
2017-07-14T14:21:51.536Z,9.40
2017-07-14T14:24:18.668Z,8.57
2017-07-14T14:26:45.859Z,8.60
2017-07-14T14:29:12.283Z,7.67
2017-07-14T14:31:38.697Z,7.80
2017-07-14T14:34:06.033Z,8.57
2017-07-14T14:36:32.473Z,8.70
2017-07-14T14:38:59.564Z,9.03
2017-07-14T14:41:25.990Z,9.87
2017-07-14T14:43:52.392Z,8.87
2017-07-14T14:46:18.801Z,9.10
2017-07-14T14:48:45.267Z,10.37
2017-07-14T14:51:11.662Z,10.07
2017-07-14T14:53:38.397Z,9.60
2017-07-14T14:56:04.777Z,8.30
2017-07-14T14:58:31.132Z,9.63
2017-07-14T15:00:57.520Z,10.50
2017-07-14T15:03:23.888Z,8.33
2017-07-14T15:05:50.274Z,10.30
2017-07-14T15:08:17.379Z,7.93
2017-07-14T15:10:43.723Z,10.00
2017-07-14T15:13:10.092Z,9.17
2017-07-14T15:15:36.617Z,9.73
2017-07-14T15:18:02.992Z,8.70
2017-07-14T15:20:29.417Z,8.10
2017-07-14T15:22:55.807Z,7.23
2017-07-14T15:25:22.168Z,7.77
2017-07-14T15:27:48.567Z,7.53
2017-07-14T15:30:15.692Z,9.03
2017-07-14T15:32:42.093Z,8.30
2017-07-14T15:35:08.497Z,8.40
2017-07-14T15:37:34.885Z,8.50
2017-07-14T15:40:01.240Z,7.03
2017-07-14T15:42:27.620Z,7.57
2017-07-14T15:44:53.980Z,7.53
2017-07-14T15:47:28.358Z,7.00
2017-07-14T15:49:54.730Z,7.13
2017-07-14T15:52:21.846Z,6.23
2017-07-14T15:55:08.201Z,6.40
2017-07-14T15:57:34.537Z,5.73
2017-07-14T16:00:00.905Z,6.53
2017-07-14T16:02:27.238Z,5.90
2017-07-14T16:04:53.590Z,5.97
2017-07-14T16:07:20.704Z,5.80
2017-07-14T16:09:47.110Z,5.40
2017-07-14T16:12:13.467Z,4.97
2017-07-14T16:14:39.889Z,4.80
2017-07-14T16:17:06.255Z,4.97
2017-07-14T16:19:33.353Z,4.30
2017-07-14T16:21:59.765Z,3.93
2017-07-14T16:24:26.125Z,3.60
2017-07-14T16:26:52.471Z,3.53
2017-07-14T16:29:18.865Z,3.43
2017-07-14T16:31:45.211Z,3.73
2017-07-14T16:34:11.599Z,3.07
2017-07-14T16:36:38.732Z,2.57
2017-07-14T16:39:05.858Z,3.20
2017-07-14T16:41:32.261Z,2.83
2017-07-14T16:43:58.628Z,2.77
2017-07-14T16:46:24.999Z,3.20
2017-07-14T16:48:51.367Z,2.70
2017-07-14T16:51:17.733Z,2.60
2017-07-14T16:53:44.108Z,3.00
2017-07-14T16:56:10.520Z,2.83
2017-07-14T16:58:36.925Z,2.47
2017-07-14T17:01:04.014Z,2.63
2017-07-14T17:03:30.368Z,2.90
2017-07-14T17:05:56.769Z,2.87
2017-07-14T17:08:23.141Z,2.40
2017-07-14T17:10:49.494Z,2.60
2017-07-14T17:13:16.664Z,2.40
2017-07-14T17:15:43.032Z,2.30
2017-07-14T17:18:09.475Z,2.57
2017-07-14T17:20:35.887Z,2.27
2017-07-14T17:23:02.251Z,2.57
2017-07-14T17:25:29.695Z,2.40
2017-07-14T17:27:56.049Z,2.73
2017-07-14T17:30:22.441Z,2.97
2017-07-14T17:32:48.801Z,2.87
2017-07-14T17:35:15.966Z,2.73
2017-07-14T17:37:42.362Z,2.60
2017-07-14T17:40:09.445Z,2.90
2017-07-14T17:42:35.863Z,3.13
2017-07-14T17:45:03.036Z,3.63
2017-07-14T17:47:29.426Z,3.87
2017-07-14T17:49:56.542Z,3.60
2017-07-14T17:52:23.543Z,3.80
2017-07-14T17:55:04.964Z,3.40
2017-07-14T17:57:31.384Z,3.57
2017-07-14T17:59:57.787Z,3.90
2017-07-14T18:02:24.158Z,3.70
2017-07-14T18:04:50.530Z,3.40
2017-07-14T18:07:17.675Z,3.77
2017-07-14T18:09:44.812Z,3.53
2017-07-14T18:12:12.008Z,3.23
2017-07-14T18:14:38.457Z,3.53
2017-07-14T18:17:04.850Z,3.77
2017-07-14T18:19:31.252Z,3.50
2017-07-14T18:22:02.210Z,3.53
2017-07-14T18:24:28.935Z,3.70
2017-07-14T18:26:55.393Z,3.93
2017-07-14T18:29:21.769Z,4.60
2017-07-14T18:31:48.217Z,4.50
2017-07-14T18:34:29.705Z,4.50
2017-07-14T18:36:56.085Z,4.80
2017-07-14T18:39:22.456Z,6.00
2017-07-14T18:41:48.881Z,5.20
2017-07-14T18:44:15.471Z,5.67
2017-07-14T18:46:42.024Z,5.73
2017-07-14T18:49:08.421Z,6.00
2017-07-14T18:51:35.014Z,6.43
2017-07-14T18:54:01.438Z,5.90
2017-07-14T18:56:27.904Z,5.97
2017-07-14T18:58:54.275Z,4.93
2017-07-14T19:01:20.701Z,5.37
2017-07-14T19:03:47.177Z,4.27
2017-07-14T19:06:13.617Z,4.87
2017-07-14T19:08:40.029Z,3.60
2017-07-14T19:11:06.482Z,3.70
2017-07-14T19:13:33.580Z,5.03
2017-07-14T19:16:00.093Z,5.03
2017-07-14T19:18:27.317Z,4.60
2017-07-14T19:20:54.451Z,4.70
2017-07-14T19:23:20.867Z,4.70
2017-07-14T19:25:47.305Z,4.70
2017-07-14T19:28:13.719Z,5.00
2017-07-14T19:30:40.130Z,5.30
2017-07-14T19:33:06.545Z,5.40
2017-07-14T19:35:34.127Z,5.20
2017-07-14T19:38:03.828Z,5.13
2017-07-14T19:40:30.245Z,5.63
2017-07-14T19:42:56.904Z,5.80
2017-07-14T19:45:24.243Z,5.03
2017-07-14T19:47:50.744Z,5.50
2017-07-14T19:50:17.291Z,5.00
2017-07-14T19:52:44.039Z,5.17
2017-07-14T19:55:10.777Z,4.90
2017-07-14T19:57:37.243Z,5.20
2017-07-14T20:00:04.364Z,5.07
2017-07-14T20:02:30.918Z,5.30
2017-07-14T20:04:57.663Z,4.93
2017-07-14T20:07:24.169Z,4.80
2017-07-14T20:09:50.751Z,5.40
2017-07-14T20:12:18.011Z,5.00
2017-07-14T20:14:45.431Z,4.63
2017-07-14T20:17:12.055Z,4.30
2017-07-14T20:19:39.393Z,4.60
2017-07-14T20:22:05.795Z,4.90
2017-07-14T20:24:32.266Z,4.57
2017-07-14T20:26:58.669Z,3.93
2017-07-14T20:29:25.986Z,4.20
2017-07-14T20:31:52.514Z,4.30
2017-07-14T20:34:19.342Z,3.80
2017-07-14T20:36:46.731Z,4.10
2017-07-14T20:39:13.387Z,4.20
2017-07-14T20:41:39.955Z,4.20
2017-07-14T20:44:06.436Z,3.67
2017-07-14T20:46:32.874Z,4.37
2017-07-14T20:49:00.165Z,5.07
2017-07-14T20:51:26.701Z,5.23
2017-07-14T20:53:53.406Z,4.90
2017-07-14T20:56:20.142Z,5.30
2017-07-14T20:58:46.770Z,4.70
2017-07-14T21:01:14.662Z,4.47
2017-07-14T21:03:42.086Z,4.10
2017-07-14T21:06:08.585Z,4.17
2017-07-14T21:08:35.149Z,3.70
2017-07-14T21:11:01.745Z,3.10
2017-07-14T21:13:28.298Z,3.20
2017-07-14T21:15:57.369Z,2.90
2017-07-14T21:18:23.813Z,2.77
2017-07-14T21:20:57.563Z,2.43
2017-07-14T21:23:24.043Z,2.67
2017-07-14T21:25:51.287Z,2.47
2017-07-14T21:28:17.857Z,2.30
2017-07-14T21:30:45.646Z,2.80
2017-07-14T21:33:12.084Z,2.93
2017-07-14T21:35:38.668Z,2.30
2017-07-14T21:38:05.323Z,2.40
2017-07-14T21:40:31.740Z,2.23
2017-07-14T21:42:58.318Z,2.40
2017-07-14T21:45:25.107Z,2.43
2017-07-14T21:47:51.868Z,2.00
2017-07-14T21:50:18.498Z,2.33
2017-07-14T21:52:46.604Z,2.50
2017-07-14T21:55:13.114Z,2.60
2017-07-14T21:57:39.765Z,2.40
2017-07-14T22:00:07.385Z,2.53
2017-07-14T22:02:33.859Z,2.60
2017-07-14T22:05:00.487Z,2.43
2017-07-14T22:07:27.712Z,2.53
2017-07-14T22:09:54.084Z,2.33
2017-07-14T22:12:20.459Z,2.53
2017-07-14T22:14:46.829Z,2.53
2017-07-14T22:17:13.310Z,2.40
2017-07-14T22:19:39.662Z,2.83
2017-07-14T22:22:06.702Z,2.30
2017-07-14T22:24:33.125Z,2.53
2017-07-14T22:26:59.505Z,2.30
2017-07-14T22:29:25.856Z,2.60
2017-07-14T22:31:53.053Z,3.00
2017-07-14T22:34:19.518Z,2.57
2017-07-14T22:36:46.614Z,2.70
2017-07-14T22:39:12.958Z,2.70
2017-07-14T22:41:39.397Z,2.87
2017-07-14T22:44:05.788Z,3.70
2017-07-14T22:46:32.181Z,3.70
2017-07-14T22:48:58.556Z,3.27
2017-07-14T22:51:24.896Z,3.90
2017-07-14T22:53:51.242Z,3.80
2017-07-14T22:56:17.614Z,4.30
2017-07-14T22:58:43.970Z,4.77
2017-07-14T23:01:10.338Z,4.87
2017-07-14T23:03:36.689Z,4.90
2017-07-14T23:06:05.209Z,4.63
2017-07-14T23:08:31.843Z,4.50
2017-07-14T23:10:58.511Z,5.20
2017-07-14T23:13:25.632Z,5.63
2017-07-14T23:15:51.996Z,6.03
2017-07-14T23:18:19.157Z,6.07
2017-07-14T23:20:45.505Z,6.00
2017-07-14T23:23:12.596Z,5.30
2017-07-14T23:25:39.727Z,4.70
2017-07-14T23:28:06.116Z,5.40
2017-07-14T23:30:33.173Z,6.30
2017-07-14T23:32:59.582Z,5.63
2017-07-14T23:35:26.022Z,4.90
2017-07-14T23:37:53.140Z,5.47
2017-07-14T23:40:19.506Z,4.90
2017-07-14T23:42:45.897Z,5.50
2017-07-14T23:45:12.262Z,5.00
2017-07-14T23:47:38.596Z,4.70
2017-07-14T23:50:04.960Z,5.10
2017-07-14T23:52:31.314Z,4.70
2017-07-14T23:54:58.791Z,5.00
2017-07-14T23:57:25.909Z,5.00
2017-07-14T23:59:52.298Z,4.60
